sensor_id;sensor_type;location;lat;lon;timestamp;temperature;humidity
9564;DHT22;4820;50.870;4.702;2022-08-25T00:01:22;23.70;99.90
9564;DHT22;4820;50.870;4.702;2022-08-25T00:03:49;23.70;99.90
9564;DHT22;4820;50.870;4.702;2022-08-25T00:06:15;23.60;99.90
9564;DHT22;4820;50.870;4.702;2022-08-25T00:08:41;23.60;99.90
9564;DHT22;4820;50.870;4.702;2022-08-25T00:11:13;23.60;99.90
9564;DHT22;4820;50.870;4.702;2022-08-25T00:13:41;23.50;99.90
9564;DHT22;4820;50.870;4.702;2022-08-25T00:16:09;23.50;99.90
9564;DHT22;4820;50.870;4.702;2022-08-25T00:18:36;23.40;99.90
9564;DHT22;4820;50.870;4.702;2022-08-25T00:21:03;23.40;99.90
9564;DHT22;4820;50.870;4.702;2022-08-25T00:23:30;23.40;99.90
9564;DHT22;4820;50.870;4.702;2022-08-25T00:25:56;23.30;99.90
9564;DHT22;4820;50.870;4.702;2022-08-25T00:28:22;23.30;99.90
9564;DHT22;4820;50.870;4.702;2022-08-25T00:30:47;23.30;99.90
9564;DHT22;4820;50.870;4.702;2022-08-25T00:33:15;23.20;99.90
9564;DHT22;4820;50.870;4.702;2022-08-25T00:35:43;23.20;99.90
9564;DHT22;4820;50.870;4.702;2022-08-25T00:38:10;23.10;99.90
9564;DHT22;4820;50.870;4.702;2022-08-25T00:40:37;23.10;99.90
9564;DHT22;4820;50.870;4.702;2022-08-25T00:43:06;23.00;99.90
9564;DHT22;4820;50.870;4.702;2022-08-25T00:45:33;23.00;99.90
9564;DHT22;4820;50.870;4.702;2022-08-25T00:48:00;23.00;99.90
9564;DHT22;4820;50.870;4.702;2022-08-25T00:50:27;23.00;99.90
9564;DHT22;4820;50.870;4.702;2022-08-25T00:52:55;22.90;99.90
9564;DHT22;4820;50.870;4.702;2022-08-25T00:55:41;22.90;99.90
9564;DHT22;4820;50.870;4.702;2022-08-25T00:58:14;22.80;99.90
9564;DHT22;4820;50.870;4.702;2022-08-25T01:00:44;22.70;99.90
9564;DHT22;4820;50.870;4.702;2022-08-25T01:03:12;22.70;99.90
9564;DHT22;4820;50.870;4.702;2022-08-25T01:05:39;22.60;99.90
9564;DHT22;4820;50.870;4.702;2022-08-25T01:08:07;22.60;99.90
9564;DHT22;4820;50.870;4.702;2022-08-25T01:10:36;22.50;99.90
9564;DHT22;4820;50.870;4.702;2022-08-25T01:13:12;22.50;99.90
9564;DHT22;4820;50.870;4.702;2022-08-25T01:15:38;22.40;99.90
9564;DHT22;4820;50.870;4.702;2022-08-25T01:18:04;22.40;99.90
9564;DHT22;4820;50.870;4.702;2022-08-25T01:20:31;22.40;99.90
9564;DHT22;4820;50.870;4.702;2022-08-25T01:22:58;22.30;99.90
9564;DHT22;4820;50.870;4.702;2022-08-25T01:26:04;22.30;99.90
9564;DHT22;4820;50.870;4.702;2022-08-25T01:28:32;22.30;99.90
9564;DHT22;4820;50.870;4.702;2022-08-25T01:30:58;22.20;99.90
9564;DHT22;4820;50.870;4.702;2022-08-25T01:33:24;22.20;99.90
9564;DHT22;4820;50.870;4.702;2022-08-25T01:35:51;22.20;99.90
9564;DHT22;4820;50.870;4.702;2022-08-25T01:38:17;22.10;99.90
9564;DHT22;4820;50.870;4.702;2022-08-25T01:40:45;22.10;99.90
9564;DHT22;4820;50.870;4.702;2022-08-25T01:45:43;22.00;99.90
9564;DHT22;4820;50.870;4.702;2022-08-25T01:48:13;22.00;99.90
9564;DHT22;4820;50.870;4.702;2022-08-25T01:50:39;21.90;99.90
9564;DHT22;4820;50.870;4.702;2022-08-25T01:53:29;21.90;99.90
9564;DHT22;4820;50.870;4.702;2022-08-25T01:55:56;21.90;99.90
9564;DHT22;4820;50.870;4.702;2022-08-25T01:58:32;21.80;99.90
9564;DHT22;4820;50.870;4.702;2022-08-25T02:01:00;21.80;99.90
9564;DHT22;4820;50.870;4.702;2022-08-25T02:03:29;21.80;99.90
9564;DHT22;4820;50.870;4.702;2022-08-25T02:05:56;21.70;99.90
9564;DHT22;4820;50.870;4.702;2022-08-25T02:08:24;21.70;99.90
9564;DHT22;4820;50.870;4.702;2022-08-25T02:10:51;21.70;99.90
9564;DHT22;4820;50.870;4.702;2022-08-25T02:13:17;21.70;99.90
9564;DHT22;4820;50.870;4.702;2022-08-25T02:15:50;21.70;99.90
9564;DHT22;4820;50.870;4.702;2022-08-25T02:18:16;21.60;99.90
9564;DHT22;4820;50.870;4.702;2022-08-25T02:20:42;21.50;99.90
9564;DHT22;4820;50.870;4.702;2022-08-25T02:23:08;21.40;99.90
9564;DHT22;4820;50.870;4.702;2022-08-25T02:25:36;21.40;99.90
9564;DHT22;4820;50.870;4.702;2022-08-25T02:28:02;21.30;99.90
9564;DHT22;4820;50.870;4.702;2022-08-25T02:30:28;21.30;99.90
9564;DHT22;4820;50.870;4.702;2022-08-25T02:32:55;21.30;99.90
9564;DHT22;4820;50.870;4.702;2022-08-25T02:35:22;21.20;99.90
9564;DHT22;4820;50.870;4.702;2022-08-25T02:37:51;21.20;99.90
9564;DHT22;4820;50.870;4.702;2022-08-25T02:40:17;21.10;99.90
9564;DHT22;4820;50.870;4.702;2022-08-25T02:42:44;21.10;99.90
9564;DHT22;4820;50.870;4.702;2022-08-25T02:45:09;21.00;99.90
9564;DHT22;4820;50.870;4.702;2022-08-25T02:47:35;21.00;99.90
9564;DHT22;4820;50.870;4.702;2022-08-25T02:50:03;21.00;99.90
9564;DHT22;4820;50.870;4.702;2022-08-25T02:52:29;21.00;99.90
9564;DHT22;4820;50.870;4.702;2022-08-25T02:54:54;21.00;99.90
9564;DHT22;4820;50.870;4.702;2022-08-25T02:57:20;20.90;99.90
9564;DHT22;4820;50.870;4.702;2022-08-25T02:59:46;20.90;99.90
9564;DHT22;4820;50.870;4.702;2022-08-25T03:02:13;20.90;99.90
9564;DHT22;4820;50.870;4.702;2022-08-25T03:04:39;21.00;99.90
9564;DHT22;4820;50.870;4.702;2022-08-25T03:07:05;21.10;99.90
9564;DHT22;4820;50.870;4.702;2022-08-25T03:09:31;21.10;99.90
9564;DHT22;4820;50.870;4.702;2022-08-25T03:11:56;21.10;99.90
9564;DHT22;4820;50.870;4.702;2022-08-25T03:14:24;21.00;99.90
9564;DHT22;4820;50.870;4.702;2022-08-25T03:16:50;21.00;99.90
9564;DHT22;4820;50.870;4.702;2022-08-25T03:19:15;20.90;99.90
9564;DHT22;4820;50.870;4.702;2022-08-25T03:21:42;20.90;99.90
9564;DHT22;4820;50.870;4.702;2022-08-25T03:24:10;20.80;99.90
9564;DHT22;4820;50.870;4.702;2022-08-25T03:26:38;20.80;99.90
9564;DHT22;4820;50.870;4.702;2022-08-25T03:29:29;20.70;99.90
9564;DHT22;4820;50.870;4.702;2022-08-25T03:31:56;20.70;99.90
9564;DHT22;4820;50.870;4.702;2022-08-25T03:34:24;20.70;99.90
9564;DHT22;4820;50.870;4.702;2022-08-25T03:36:52;20.70;99.90
9564;DHT22;4820;50.870;4.702;2022-08-25T03:39:20;20.60;99.90
9564;DHT22;4820;50.870;4.702;2022-08-25T03:41:46;20.60;99.90
9564;DHT22;4820;50.870;4.702;2022-08-25T03:44:13;20.60;99.90
9564;DHT22;4820;50.870;4.702;2022-08-25T03:46:41;20.60;99.90
9564;DHT22;4820;50.870;4.702;2022-08-25T03:49:10;20.60;99.90
9564;DHT22;4820;50.870;4.702;2022-08-25T03:51:40;20.60;99.90
9564;DHT22;4820;50.870;4.702;2022-08-25T03:54:07;20.60;99.90
9564;DHT22;4820;50.870;4.702;2022-08-25T03:56:33;20.60;99.90
9564;DHT22;4820;50.870;4.702;2022-08-25T03:58:59;20.60;99.90
9564;DHT22;4820;50.870;4.702;2022-08-25T04:01:25;20.60;99.90
9564;DHT22;4820;50.870;4.702;2022-08-25T04:03:51;20.60;99.90
9564;DHT22;4820;50.870;4.702;2022-08-25T04:06:18;20.50;99.90
9564;DHT22;4820;50.870;4.702;2022-08-25T04:08:44;20.50;99.90
9564;DHT22;4820;50.870;4.702;2022-08-25T04:11:19;20.60;99.90
9564;DHT22;4820;50.870;4.702;2022-08-25T04:13:46;20.60;99.90
9564;DHT22;4820;50.870;4.702;2022-08-25T04:16:15;20.70;99.90
9564;DHT22;4820;50.870;4.702;2022-08-25T04:18:42;20.70;99.90
9564;DHT22;4820;50.870;4.702;2022-08-25T04:21:09;20.60;99.90
9564;DHT22;4820;50.870;4.702;2022-08-25T04:23:39;20.60;99.90
9564;DHT22;4820;50.870;4.702;2022-08-25T04:26:15;20.60;99.90
9564;DHT22;4820;50.870;4.702;2022-08-25T04:28:45;20.60;99.90
9564;DHT22;4820;50.870;4.702;2022-08-25T04:31:13;20.50;99.90
9564;DHT22;4820;50.870;4.702;2022-08-25T04:33:40;20.50;99.90
9564;DHT22;4820;50.870;4.702;2022-08-25T04:36:08;20.50;99.90
9564;DHT22;4820;50.870;4.702;2022-08-25T04:38:36;20.50;99.90
9564;DHT22;4820;50.870;4.702;2022-08-25T04:41:04;20.40;99.90
9564;DHT22;4820;50.870;4.702;2022-08-25T04:43:31;20.40;99.90
9564;DHT22;4820;50.870;4.702;2022-08-25T04:45:58;20.40;99.90
9564;DHT22;4820;50.870;4.702;2022-08-25T04:48:24;20.50;99.90
9564;DHT22;4820;50.870;4.702;2022-08-25T04:50:50;20.50;99.90
9564;DHT22;4820;50.870;4.702;2022-08-25T04:53:17;20.50;99.90
9564;DHT22;4820;50.870;4.702;2022-08-25T04:55:45;20.40;99.90
9564;DHT22;4820;50.870;4.702;2022-08-25T04:58:12;20.40;99.90
9564;DHT22;4820;50.870;4.702;2022-08-25T05:00:38;20.40;99.90
9564;DHT22;4820;50.870;4.702;2022-08-25T05:03:05;20.30;99.90
9564;DHT22;4820;50.870;4.702;2022-08-25T05:05:35;20.40;99.90
9564;DHT22;4820;50.870;4.702;2022-08-25T05:08:02;20.50;99.90
9564;DHT22;4820;50.870;4.702;2022-08-25T05:10:28;20.60;99.90
9564;DHT22;4820;50.870;4.702;2022-08-25T05:12:54;20.70;99.90
9564;DHT22;4820;50.870;4.702;2022-08-25T05:15:19;20.70;99.90
9564;DHT22;4820;50.870;4.702;2022-08-25T05:18:04;20.70;99.90
9564;DHT22;4820;50.870;4.702;2022-08-25T05:20:29;20.70;99.90
9564;DHT22;4820;50.870;4.702;2022-08-25T05:22:56;20.70;99.90
9564;DHT22;4820;50.870;4.702;2022-08-25T05:25:23;20.70;99.90
9564;DHT22;4820;50.870;4.702;2022-08-25T05:27:49;20.80;99.90
9564;DHT22;4820;50.870;4.702;2022-08-25T05:30:15;20.80;99.90
9564;DHT22;4820;50.870;4.702;2022-08-25T05:32:42;20.80;99.90
9564;DHT22;4820;50.870;4.702;2022-08-25T05:35:09;20.80;99.90
9564;DHT22;4820;50.870;4.702;2022-08-25T05:37:36;20.80;99.90
9564;DHT22;4820;50.870;4.702;2022-08-25T05:40:06;20.90;99.90
9564;DHT22;4820;50.870;4.702;2022-08-25T05:42:33;20.90;99.90
9564;DHT22;4820;50.870;4.702;2022-08-25T05:44:58;21.00;99.90
9564;DHT22;4820;50.870;4.702;2022-08-25T05:47:25;21.00;99.90
9564;DHT22;4820;50.870;4.702;2022-08-25T05:49:52;21.00;99.90
9564;DHT22;4820;50.870;4.702;2022-08-25T05:52:18;21.00;99.90
9564;DHT22;4820;50.870;4.702;2022-08-25T05:54:45;21.00;99.90
9564;DHT22;4820;50.870;4.702;2022-08-25T05:57:12;21.10;99.90
9564;DHT22;4820;50.870;4.702;2022-08-25T05:59:39;21.10;99.90
9564;DHT22;4820;50.870;4.702;2022-08-25T06:02:05;21.20;99.90
9564;DHT22;4820;50.870;4.702;2022-08-25T06:04:49;21.30;99.90
9564;DHT22;4820;50.870;4.702;2022-08-25T06:07:15;21.40;99.90
9564;DHT22;4820;50.870;4.702;2022-08-25T06:09:41;21.60;99.90
9564;DHT22;4820;50.870;4.702;2022-08-25T06:12:10;21.60;99.90
9564;DHT22;4820;50.870;4.702;2022-08-25T06:14:36;21.70;99.90
9564;DHT22;4820;50.870;4.702;2022-08-25T06:17:02;21.70;99.90
9564;DHT22;4820;50.870;4.702;2022-08-25T06:19:29;21.70;99.90
9564;DHT22;4820;50.870;4.702;2022-08-25T06:21:57;21.80;99.90
9564;DHT22;4820;50.870;4.702;2022-08-25T06:24:24;21.80;99.90
9564;DHT22;4820;50.870;4.702;2022-08-25T06:26:50;21.90;99.90
9564;DHT22;4820;50.870;4.702;2022-08-25T06:29:16;22.00;99.90
9564;DHT22;4820;50.870;4.702;2022-08-25T06:31:42;22.20;99.90
9564;DHT22;4820;50.870;4.702;2022-08-25T06:34:09;22.30;99.90
9564;DHT22;4820;50.870;4.702;2022-08-25T06:36:34;22.40;99.90
9564;DHT22;4820;50.870;4.702;2022-08-25T06:39:02;22.60;99.90
9564;DHT22;4820;50.870;4.702;2022-08-25T06:41:29;22.70;99.90
9564;DHT22;4820;50.870;4.702;2022-08-25T06:43:57;22.80;99.90
9564;DHT22;4820;50.870;4.702;2022-08-25T06:46:26;23.00;99.90
9564;DHT22;4820;50.870;4.702;2022-08-25T06:48:54;23.00;99.90
9564;DHT22;4820;50.870;4.702;2022-08-25T06:51:24;23.00;99.90
9564;DHT22;4820;50.870;4.702;2022-08-25T06:53:51;23.00;99.90
9564;DHT22;4820;50.870;4.702;2022-08-25T06:56:18;23.10;99.90
9564;DHT22;4820;50.870;4.702;2022-08-25T06:58:46;23.10;99.90
9564;DHT22;4820;50.870;4.702;2022-08-25T07:01:18;23.20;99.90
9564;DHT22;4820;50.870;4.702;2022-08-25T07:03:47;23.20;99.90
9564;DHT22;4820;50.870;4.702;2022-08-25T07:06:13;23.20;99.90
9564;DHT22;4820;50.870;4.702;2022-08-25T07:08:38;23.20;99.90
9564;DHT22;4820;50.870;4.702;2022-08-25T07:11:08;23.30;99.90
9564;DHT22;4820;50.870;4.702;2022-08-25T07:13:37;23.40;99.90
9564;DHT22;4820;50.870;4.702;2022-08-25T07:16:05;23.40;99.90
9564;DHT22;4820;50.870;4.702;2022-08-25T07:18:33;23.60;99.90
9564;DHT22;4820;50.870;4.702;2022-08-25T07:20:59;23.60;99.90
9564;DHT22;4820;50.870;4.702;2022-08-25T07:23:25;23.70;99.90
9564;DHT22;4820;50.870;4.702;2022-08-25T07:25:52;23.80;99.90
9564;DHT22;4820;50.870;4.702;2022-08-25T07:28:20;23.90;99.90
9564;DHT22;4820;50.870;4.702;2022-08-25T07:30:46;24.00;99.90
9564;DHT22;4820;50.870;4.702;2022-08-25T07:33:12;24.10;99.90
9564;DHT22;4820;50.870;4.702;2022-08-25T07:35:38;24.30;99.90
9564;DHT22;4820;50.870;4.702;2022-08-25T07:38:05;24.30;99.90
9564;DHT22;4820;50.870;4.702;2022-08-25T07:40:34;24.40;99.90
9564;DHT22;4820;50.870;4.702;2022-08-25T07:43:03;24.50;99.90
9564;DHT22;4820;50.870;4.702;2022-08-25T07:45:32;24.60;99.90
9564;DHT22;4820;50.870;4.702;2022-08-25T07:48:05;24.70;99.90
9564;DHT22;4820;50.870;4.702;2022-08-25T07:50:32;24.70;99.90
9564;DHT22;4820;50.870;4.702;2022-08-25T07:52:59;24.90;99.90
9564;DHT22;4820;50.870;4.702;2022-08-25T07:55:27;24.90;99.90
9564;DHT22;4820;50.870;4.702;2022-08-25T07:57:55;25.00;99.90
9564;DHT22;4820;50.870;4.702;2022-08-25T08:00:22;25.10;99.90
9564;DHT22;4820;50.870;4.702;2022-08-25T08:02:47;25.10;99.90
9564;DHT22;4820;50.870;4.702;2022-08-25T08:05:14;25.20;99.90
9564;DHT22;4820;50.870;4.702;2022-08-25T08:07:40;25.20;99.90
9564;DHT22;4820;50.870;4.702;2022-08-25T08:10:07;25.30;99.90
9564;DHT22;4820;50.870;4.702;2022-08-25T08:12:34;25.50;99.90
9564;DHT22;4820;50.870;4.702;2022-08-25T08:15:02;25.60;99.70
9564;DHT22;4820;50.870;4.702;2022-08-25T08:17:27;25.80;99.40
9564;DHT22;4820;50.870;4.702;2022-08-25T08:19:53;26.00;98.70
9564;DHT22;4820;50.870;4.702;2022-08-25T08:22:19;26.10;98.30
9564;DHT22;4820;50.870;4.702;2022-08-25T08:24:46;26.10;98.20
9564;DHT22;4820;50.870;4.702;2022-08-25T08:27:12;26.30;98.10
9564;DHT22;4820;50.870;4.702;2022-08-25T08:29:39;26.50;97.80
9564;DHT22;4820;50.870;4.702;2022-08-25T08:32:08;26.70;97.80
9564;DHT22;4820;50.870;4.702;2022-08-25T08:34:34;26.80;96.30
9564;DHT22;4820;50.870;4.702;2022-08-25T08:37:00;27.00;95.40
9564;DHT22;4820;50.870;4.702;2022-08-25T08:39:27;27.10;94.90
9564;DHT22;4820;50.870;4.702;2022-08-25T08:42:13;27.20;95.20
9564;DHT22;4820;50.870;4.702;2022-08-25T08:44:53;27.30;94.70
9564;DHT22;4820;50.870;4.702;2022-08-25T08:47:59;27.40;93.30
9564;DHT22;4820;50.870;4.702;2022-08-25T08:50:50;27.50;93.00
9564;DHT22;4820;50.870;4.702;2022-08-25T08:53:26;27.60;93.00
9564;DHT22;4820;50.870;4.702;2022-08-25T08:55:57;27.70;92.50
9564;DHT22;4820;50.870;4.702;2022-08-25T08:58:46;27.80;92.10
9564;DHT22;4820;50.870;4.702;2022-08-25T09:01:27;28.00;92.10
9564;DHT22;4820;50.870;4.702;2022-08-25T09:04:18;28.10;92.10
9564;DHT22;4820;50.870;4.702;2022-08-25T09:06:47;28.20;91.00
9564;DHT22;4820;50.870;4.702;2022-08-25T09:09:17;28.40;91.00
9564;DHT22;4820;50.870;4.702;2022-08-25T09:18:30;28.60;90.60
9564;DHT22;4820;50.870;4.702;2022-08-25T09:21:04;28.70;90.40
9564;DHT22;4820;50.870;4.702;2022-08-25T09:29:03;29.10;86.80
9564;DHT22;4820;50.870;4.702;2022-08-25T09:31:37;29.20;86.20
9564;DHT22;4820;50.870;4.702;2022-08-25T09:34:06;29.30;86.40
9564;DHT22;4820;50.870;4.702;2022-08-25T09:36:32;29.40;85.90
9564;DHT22;4820;50.870;4.702;2022-08-25T09:38:58;29.50;85.30
9564;DHT22;4820;50.870;4.702;2022-08-25T09:41:55;29.60;84.10
9564;DHT22;4820;50.870;4.702;2022-08-25T09:49:48;29.90;81.40
9564;DHT22;4820;50.870;4.702;2022-08-25T09:54:54;30.10;80.20
9564;DHT22;4820;50.870;4.702;2022-08-25T09:57:36;30.10;79.30
9564;DHT22;4820;50.870;4.702;2022-08-25T10:00:30;30.10;78.50
9564;DHT22;4820;50.870;4.702;2022-08-25T10:05:33;30.20;78.70
9564;DHT22;4820;50.870;4.702;2022-08-25T10:08:11;30.10;78.20
9564;DHT22;4820;50.870;4.702;2022-08-25T10:10:44;30.20;75.00
9564;DHT22;4820;50.870;4.702;2022-08-25T10:13:17;30.30;74.70
9564;DHT22;4820;50.870;4.702;2022-08-25T10:15:43;30.40;74.10
9564;DHT22;4820;50.870;4.702;2022-08-25T10:18:23;30.60;74.40
9564;DHT22;4820;50.870;4.702;2022-08-25T10:21:11;30.80;74.10
9564;DHT22;4820;50.870;4.702;2022-08-25T10:23:41;30.90;72.50
9564;DHT22;4820;50.870;4.702;2022-08-25T10:32:00;31.10;70.40
9564;DHT22;4820;50.870;4.702;2022-08-25T10:37:35;31.00;70.60
9564;DHT22;4820;50.870;4.702;2022-08-25T10:40:35;31.00;71.00
9564;DHT22;4820;50.870;4.702;2022-08-25T10:46:09;31.20;70.60
9564;DHT22;4820;50.870;4.702;2022-08-25T10:48:49;31.20;71.80
9564;DHT22;4820;50.870;4.702;2022-08-25T11:07:58;31.70;69.20
9564;DHT22;4820;50.870;4.702;2022-08-25T11:10:41;31.80;70.40
9564;DHT22;4820;50.870;4.702;2022-08-25T11:13:18;31.80;69.60
9564;DHT22;4820;50.870;4.702;2022-08-25T11:15:54;31.90;69.20
9564;DHT22;4820;50.870;4.702;2022-08-25T11:18:20;32.00;68.00
9564;DHT22;4820;50.870;4.702;2022-08-25T11:21:09;32.00;68.00
9564;DHT22;4820;50.870;4.702;2022-08-25T11:23:38;32.00;68.40
9564;DHT22;4820;50.870;4.702;2022-08-25T11:26:10;32.00;68.20
9564;DHT22;4820;50.870;4.702;2022-08-25T11:31:27;32.10;67.20
9564;DHT22;4820;50.870;4.702;2022-08-25T11:33:54;32.10;66.90
9564;DHT22;4820;50.870;4.702;2022-08-25T11:36:36;32.00;67.10
9564;DHT22;4820;50.870;4.702;2022-08-25T11:53:50;32.30;66.00
9564;DHT22;4820;50.870;4.702;2022-08-25T11:56:33;32.20;64.70
9564;DHT22;4820;50.870;4.702;2022-08-25T11:59:00;32.10;65.50
9564;DHT22;4820;50.870;4.702;2022-08-25T12:04:30;32.10;64.70
9564;DHT22;4820;50.870;4.702;2022-08-25T12:12:36;32.00;64.90
9564;DHT22;4820;50.870;4.702;2022-08-25T12:15:25;32.00;65.00
9564;DHT22;4820;50.870;4.702;2022-08-25T12:23:44;31.60;66.00
9564;DHT22;4820;50.870;4.702;2022-08-25T12:26:40;31.60;65.70
9564;DHT22;4820;50.870;4.702;2022-08-25T12:29:20;31.60;64.90
9564;DHT22;4820;50.870;4.702;2022-08-25T12:32:19;31.50;65.10
9564;DHT22;4820;50.870;4.702;2022-08-25T12:35:23;31.40;65.70
9564;DHT22;4820;50.870;4.702;2022-08-25T12:40:30;31.50;66.40
9564;DHT22;4820;50.870;4.702;2022-08-25T12:43:06;31.60;66.00
9564;DHT22;4820;50.870;4.702;2022-08-25T12:45:37;31.80;65.70
9564;DHT22;4820;50.870;4.702;2022-08-25T12:51:18;32.40;63.80
9564;DHT22;4820;50.870;4.702;2022-08-25T12:56:24;32.60;63.20
9564;DHT22;4820;50.870;4.702;2022-08-25T13:04:32;33.00;63.50
9564;DHT22;4820;50.870;4.702;2022-08-25T13:13:51;32.70;62.40
9564;DHT22;4820;50.870;4.702;2022-08-25T13:16:08;32.60;62.60
9564;DHT22;4820;50.870;4.702;2022-08-25T13:18:40;32.50;62.90
9564;DHT22;4820;50.870;4.702;2022-08-25T13:23:45;32.30;62.40
9564;DHT22;4820;50.870;4.702;2022-08-25T13:26:15;32.20;62.50
9564;DHT22;4820;50.870;4.702;2022-08-25T13:28:42;32.10;62.80
9564;DHT22;4820;50.870;4.702;2022-08-25T13:31:19;32.00;63.10
9564;DHT22;4820;50.870;4.702;2022-08-25T13:33:58;32.00;63.30
9564;DHT22;4820;50.870;4.702;2022-08-25T13:36:25;32.10;62.70
9564;DHT22;4820;50.870;4.702;2022-08-25T13:39:13;32.20;62.90
9564;DHT22;4820;50.870;4.702;2022-08-25T13:41:53;32.30;62.70
9564;DHT22;4820;50.870;4.702;2022-08-25T13:44:21;32.40;62.80
9564;DHT22;4820;50.870;4.702;2022-08-25T13:47:11;32.60;62.20
9564;DHT22;4820;50.870;4.702;2022-08-25T13:49:41;32.70;62.10
9564;DHT22;4820;50.870;4.702;2022-08-25T13:52:24;32.80;62.30
9564;DHT22;4820;50.870;4.702;2022-08-25T13:54:55;32.70;61.90
9564;DHT22;4820;50.870;4.702;2022-08-25T13:57:24;32.80;62.40
9564;DHT22;4820;50.870;4.702;2022-08-25T14:00:04;32.70;61.70
9564;DHT22;4820;50.870;4.702;2022-08-25T14:02:50;32.80;62.20
9564;DHT22;4820;50.870;4.702;2022-08-25T14:08:03;32.90;62.10
9564;DHT22;4820;50.870;4.702;2022-08-25T14:10:41;33.10;61.50
9564;DHT22;4820;50.870;4.702;2022-08-25T14:13:14;33.10;60.90
9564;DHT22;4820;50.870;4.702;2022-08-25T14:15:43;33.20;60.40
9564;DHT22;4820;50.870;4.702;2022-08-25T14:18:12;33.20;60.40
9564;DHT22;4820;50.870;4.702;2022-08-25T14:20:47;33.20;60.60
9564;DHT22;4820;50.870;4.702;2022-08-25T14:23:18;33.20;60.30
9564;DHT22;4820;50.870;4.702;2022-08-25T14:25:44;33.30;60.00
9564;DHT22;4820;50.870;4.702;2022-08-25T14:28:17;33.30;59.90
9564;DHT22;4820;50.870;4.702;2022-08-25T14:30:47;33.40;59.90
9564;DHT22;4820;50.870;4.702;2022-08-25T14:33:15;33.40;60.20
9564;DHT22;4820;50.870;4.702;2022-08-25T14:35:46;33.50;59.70
9564;DHT22;4820;50.870;4.702;2022-08-25T14:38:13;33.50;59.40
9564;DHT22;4820;50.870;4.702;2022-08-25T14:40:40;33.60;59.40
9564;DHT22;4820;50.870;4.702;2022-08-25T14:43:10;33.60;58.80
9564;DHT22;4820;50.870;4.702;2022-08-25T14:45:41;33.60;59.30
9564;DHT22;4820;50.870;4.702;2022-08-25T14:48:09;33.60;59.30
9564;DHT22;4820;50.870;4.702;2022-08-25T14:50:37;33.50;59.30
9564;DHT22;4820;50.870;4.702;2022-08-25T14:53:04;33.30;59.50
9564;DHT22;4820;50.870;4.702;2022-08-25T14:55:30;33.30;59.50
9564;DHT22;4820;50.870;4.702;2022-08-25T14:57:55;33.20;60.10
9564;DHT22;4820;50.870;4.702;2022-08-25T15:00:21;33.20;59.70
9564;DHT22;4820;50.870;4.702;2022-08-25T15:02:48;33.20;59.80
9564;DHT22;4820;50.870;4.702;2022-08-25T15:05:22;33.20;59.80
9564;DHT22;4820;50.870;4.702;2022-08-25T15:07:53;33.30;59.60
9564;DHT22;4820;50.870;4.702;2022-08-25T15:10:39;33.30;60.70
9564;DHT22;4820;50.870;4.702;2022-08-25T15:13:04;33.30;66.70
9564;DHT22;4820;50.870;4.702;2022-08-25T15:15:32;33.20;68.50
9564;DHT22;4820;50.870;4.702;2022-08-25T15:17:59;33.10;68.90
9564;DHT22;4820;50.870;4.702;2022-08-25T15:20:25;33.10;68.10
9564;DHT22;4820;50.870;4.702;2022-08-25T15:22:51;33.00;69.50
9564;DHT22;4820;50.870;4.702;2022-08-25T15:25:16;33.00;70.00
9564;DHT22;4820;50.870;4.702;2022-08-25T15:27:44;33.00;70.20
9564;DHT22;4820;50.870;4.702;2022-08-25T15:30:11;33.00;70.20
9564;DHT22;4820;50.870;4.702;2022-08-25T15:32:37;32.90;69.60
9564;DHT22;4820;50.870;4.702;2022-08-25T15:35:03;32.90;68.80
9564;DHT22;4820;50.870;4.702;2022-08-25T15:37:28;32.90;70.10
9564;DHT22;4820;50.870;4.702;2022-08-25T15:39:55;32.90;70.30
9564;DHT22;4820;50.870;4.702;2022-08-25T15:42:21;32.90;71.50
9564;DHT22;4820;50.870;4.702;2022-08-25T15:44:46;32.80;71.50
9564;DHT22;4820;50.870;4.702;2022-08-25T15:47:12;32.80;71.30
9564;DHT22;4820;50.870;4.702;2022-08-25T15:49:38;32.70;70.30
9564;DHT22;4820;50.870;4.702;2022-08-25T15:52:04;32.70;71.30
9564;DHT22;4820;50.870;4.702;2022-08-25T15:54:30;32.60;71.70
9564;DHT22;4820;50.870;4.702;2022-08-25T15:56:56;32.50;72.50
9564;DHT22;4820;50.870;4.702;2022-08-25T15:59:23;32.40;72.70
9564;DHT22;4820;50.870;4.702;2022-08-25T16:01:49;32.40;72.40
9564;DHT22;4820;50.870;4.702;2022-08-25T16:04:18;32.40;72.30
9564;DHT22;4820;50.870;4.702;2022-08-25T16:06:44;32.40;71.40
9564;DHT22;4820;50.870;4.702;2022-08-25T16:09:09;32.40;70.50
9564;DHT22;4820;50.870;4.702;2022-08-25T16:11:35;32.60;71.30
9564;DHT22;4820;50.870;4.702;2022-08-25T16:14:03;32.50;71.70
9564;DHT22;4820;50.870;4.702;2022-08-25T16:16:30;32.50;76.40
9564;DHT22;4820;50.870;4.702;2022-08-25T16:18:56;32.30;81.30
9564;DHT22;4820;50.870;4.702;2022-08-25T16:21:26;32.10;83.10
9564;DHT22;4820;50.870;4.702;2022-08-25T16:23:55;31.90;84.50
9564;DHT22;4820;50.870;4.702;2022-08-25T16:26:22;31.70;85.80
9564;DHT22;4820;50.870;4.702;2022-08-25T16:28:48;31.40;85.80
9564;DHT22;4820;50.870;4.702;2022-08-25T16:31:15;31.20;86.80
9564;DHT22;4820;50.870;4.702;2022-08-25T16:33:42;31.10;87.60
9564;DHT22;4820;50.870;4.702;2022-08-25T16:38:38;31.00;88.90
9564;DHT22;4820;50.870;4.702;2022-08-25T16:41:12;31.00;89.40
9564;DHT22;4820;50.870;4.702;2022-08-25T16:43:38;30.90;89.90
9564;DHT22;4820;50.870;4.702;2022-08-25T16:46:07;30.90;90.40
9564;DHT22;4820;50.870;4.702;2022-08-25T16:48:33;30.80;90.20
9564;DHT22;4820;50.870;4.702;2022-08-25T16:50:59;30.70;90.40
9564;DHT22;4820;50.870;4.702;2022-08-25T16:53:26;30.60;90.80
9564;DHT22;4820;50.870;4.702;2022-08-25T16:56:10;30.50;90.90
9564;DHT22;4820;50.870;4.702;2022-08-25T16:58:36;30.50;91.10
9564;DHT22;4820;50.870;4.702;2022-08-25T17:01:07;30.40;91.10
9564;DHT22;4820;50.870;4.702;2022-08-25T17:03:34;30.40;91.10
9564;DHT22;4820;50.870;4.702;2022-08-25T17:06:00;30.30;91.00
9564;DHT22;4820;50.870;4.702;2022-08-25T17:08:26;30.30;91.00
9564;DHT22;4820;50.870;4.702;2022-08-25T17:11:10;30.30;91.10
9564;DHT22;4820;50.870;4.702;2022-08-25T17:13:39;30.20;91.00
9564;DHT22;4820;50.870;4.702;2022-08-25T17:16:05;30.10;90.90
9564;DHT22;4820;50.870;4.702;2022-08-25T17:18:32;30.00;91.20
9564;DHT22;4820;50.870;4.702;2022-08-25T17:21:09;29.90;91.50
9564;DHT22;4820;50.870;4.702;2022-08-25T17:23:37;29.70;91.90
9564;DHT22;4820;50.870;4.702;2022-08-25T17:26:05;29.50;92.00
9564;DHT22;4820;50.870;4.702;2022-08-25T17:28:31;29.40;92.60
9564;DHT22;4820;50.870;4.702;2022-08-25T17:30:58;29.30;93.00
9564;DHT22;4820;50.870;4.702;2022-08-25T17:33:24;29.20;93.30
9564;DHT22;4820;50.870;4.702;2022-08-25T17:35:53;29.00;93.80
9564;DHT22;4820;50.870;4.702;2022-08-25T17:38:22;28.90;94.40
9564;DHT22;4820;50.870;4.702;2022-08-25T17:40:53;28.80;94.60
9564;DHT22;4820;50.870;4.702;2022-08-25T17:43:21;28.60;95.00
9564;DHT22;4820;50.870;4.702;2022-08-25T17:45:47;28.50;95.20
9564;DHT22;4820;50.870;4.702;2022-08-25T17:48:13;28.40;95.20
9564;DHT22;4820;50.870;4.702;2022-08-25T17:50:40;28.30;95.50
9564;DHT22;4820;50.870;4.702;2022-08-25T17:53:07;28.20;95.60
9564;DHT22;4820;50.870;4.702;2022-08-25T17:55:33;28.10;95.80
9564;DHT22;4820;50.870;4.702;2022-08-25T17:58:00;28.00;95.80
9564;DHT22;4820;50.870;4.702;2022-08-25T18:00:28;27.90;96.10
9564;DHT22;4820;50.870;4.702;2022-08-25T18:02:54;27.90;96.60
9564;DHT22;4820;50.870;4.702;2022-08-25T18:05:20;27.80;97.10
9564;DHT22;4820;50.870;4.702;2022-08-25T18:07:45;27.70;97.40
9564;DHT22;4820;50.870;4.702;2022-08-25T18:10:11;27.60;97.90
9564;DHT22;4820;50.870;4.702;2022-08-25T18:12:37;27.50;98.60